sensor_id;sensor_type;location;lat;lon;timestamp;pressure;altitude;pressure_sealevel;temperature;humidity
50368;BME280;36281;34.132;-118.018;2024-01-07T00:00:33;100226.09;;;17.44;47.05
50368;BME280;36281;34.132;-118.018;2024-01-07T00:03:02;100225.47;;;17.37;47.91
50368;BME280;36281;34.132;-118.018;2024-01-07T00:05:31;100224.22;;;17.23;48.60
50368;BME280;36281;34.132;-118.018;2024-01-07T00:08:03;100215.56;;;17.16;48.95
50368;BME280;36281;34.132;-118.018;2024-01-07T00:10:32;100197.28;;;16.91;50.35
50368;BME280;36281;34.132;-118.018;2024-01-07T00:13:01;100205.28;;;16.91;50.45
50368;BME280;36281;34.132;-118.018;2024-01-07T00:15:30;100204.88;;;16.82;50.89
50368;BME280;36281;34.132;-118.018;2024-01-07T00:18:00;100188.97;;;16.59;51.26
50368;BME280;36281;34.132;-118.018;2024-01-07T00:20:29;100196.28;;;16.63;51.28
50368;BME280;36281;34.132;-118.018;2024-01-07T00:22:58;100196.34;;;16.51;51.09
50368;BME280;36281;34.132;-118.018;2024-01-07T00:25:29;100198.63;;;16.43;51.76
50368;BME280;36281;34.132;-118.018;2024-01-07T00:27:58;100199.41;;;16.43;52.13
50368;BME280;36281;34.132;-118.018;2024-01-07T00:30:27;100197.56;;;16.44;53.22
50368;BME280;36281;34.132;-118.018;2024-01-07T00:32:56;100188.16;;;16.41;54.38
50368;BME280;36281;34.132;-118.018;2024-01-07T00:35:26;100181.19;;;16.40;56.11
50368;BME280;36281;34.132;-118.018;2024-01-07T00:37:55;100168.44;;;16.31;57.29
50368;BME280;36281;34.132;-118.018;2024-01-07T00:40:29;100164.81;;;16.20;58.44
50368;BME280;36281;34.132;-118.018;2024-01-07T00:42:58;100171.13;;;16.31;58.63
50368;BME280;36281;34.132;-118.018;2024-01-07T00:45:27;100170.16;;;16.20;59.76
50368;BME280;36281;34.132;-118.018;2024-01-07T00:47:56;100170.88;;;16.15;60.73
50368;BME280;36281;34.132;-118.018;2024-01-07T00:50:25;100176.03;;;16.05;61.41
50368;BME280;36281;34.132;-118.018;2024-01-07T00:52:55;100189.09;;;16.01;62.18
50368;BME280;36281;34.132;-118.018;2024-01-07T00:55:24;100193.28;;;15.97;63.03
50368;BME280;36281;34.132;-118.018;2024-01-07T00:57:55;100187.25;;;15.90;63.59
50368;BME280;36281;34.132;-118.018;2024-01-07T01:00:24;100191.94;;;15.83;64.35
50368;BME280;36281;34.132;-118.018;2024-01-07T01:02:55;100196.38;;;15.77;64.66
50368;BME280;36281;34.132;-118.018;2024-01-07T01:05:24;100184.19;;;15.70;65.02
50368;BME280;36281;34.132;-118.018;2024-01-07T01:07:54;100188.63;;;15.64;66.04
50368;BME280;36281;34.132;-118.018;2024-01-07T01:10:23;100185.81;;;15.59;66.24
50368;BME280;36281;34.132;-118.018;2024-01-07T01:12:52;100188.16;;;15.56;66.33
50368;BME280;36281;34.132;-118.018;2024-01-07T01:15:24;100189.09;;;15.49;67.23
50368;BME280;36281;34.132;-118.018;2024-01-07T01:17:53;100184.34;;;15.40;67.37
50368;BME280;36281;34.132;-118.018;2024-01-07T01:20:22;100181.03;;;15.33;67.88
50368;BME280;36281;34.132;-118.018;2024-01-07T01:22:51;100202.03;;;15.29;68.44
50368;BME280;36281;34.132;-118.018;2024-01-07T01:25:21;100206.19;;;15.25;68.62
50368;BME280;36281;34.132;-118.018;2024-01-07T01:27:50;100198.88;;;15.20;69.21
50368;BME280;36281;34.132;-118.018;2024-01-07T01:30:19;100204.59;;;15.12;70.18
50368;BME280;36281;34.132;-118.018;2024-01-07T01:32:50;100208.88;;;15.02;69.98
50368;BME280;36281;34.132;-118.018;2024-01-07T01:35:19;100206.09;;;14.96;70.37
50368;BME280;36281;34.132;-118.018;2024-01-07T01:37:48;100201.00;;;14.95;70.90
50368;BME280;36281;34.132;-118.018;2024-01-07T01:40:18;100204.59;;;14.89;71.56
50368;BME280;36281;34.132;-118.018;2024-01-07T01:42:47;100200.06;;;14.89;71.51
50368;BME280;36281;34.132;-118.018;2024-01-07T01:45:19;100197.66;;;14.88;71.71
50368;BME280;36281;34.132;-118.018;2024-01-07T01:47:50;100196.03;;;14.87;71.33
50368;BME280;36281;34.132;-118.018;2024-01-07T01:50:19;100188.84;;;14.87;71.65
50368;BME280;36281;34.132;-118.018;2024-01-07T01:52:49;100179.78;;;14.88;71.89
50368;BME280;36281;34.132;-118.018;2024-01-07T01:55:20;100196.25;;;14.85;72.03
50368;BME280;36281;34.132;-118.018;2024-01-07T01:57:49;100187.06;;;14.81;71.81
50368;BME280;36281;34.132;-118.018;2024-01-07T02:00:19;100186.50;;;14.79;71.61
50368;BME280;36281;34.132;-118.018;2024-01-07T02:02:50;100156.22;;;14.50;71.79
50368;BME280;36281;34.132;-118.018;2024-01-07T02:05:19;100184.16;;;14.71;71.79
50368;BME280;36281;34.132;-118.018;2024-01-07T02:07:48;100198.44;;;14.77;71.70
50368;BME280;36281;34.132;-118.018;2024-01-07T02:10:18;100204.00;;;14.75;71.78
50368;BME280;36281;34.132;-118.018;2024-01-07T02:12:47;100201.94;;;14.77;71.90
50368;BME280;36281;34.132;-118.018;2024-01-07T02:15:17;100210.13;;;14.76;71.91
50368;BME280;36281;34.132;-118.018;2024-01-07T02:17:46;100199.72;;;14.74;72.07
50368;BME280;36281;34.132;-118.018;2024-01-07T02:20:17;100143.91;;;14.37;72.32
50368;BME280;36281;34.132;-118.018;2024-01-07T02:22:46;100205.50;;;14.71;72.97
50368;BME280;36281;34.132;-118.018;2024-01-07T02:25:17;100213.72;;;14.69;72.76
50368;BME280;36281;34.132;-118.018;2024-01-07T02:27:46;100207.47;;;14.64;73.61
50368;BME280;36281;34.132;-118.018;2024-01-07T02:30:15;100217.31;;;14.63;73.64
50368;BME280;36281;34.132;-118.018;2024-01-07T02:32:44;100209.53;;;14.62;74.65
50368;BME280;36281;34.132;-118.018;2024-01-07T02:35:13;100209.53;;;14.62;75.00
50368;BME280;36281;34.132;-118.018;2024-01-07T02:37:42;100205.84;;;14.63;75.00
50368;BME280;36281;34.132;-118.018;2024-01-07T02:40:12;100192.97;;;14.60;75.71
50368;BME280;36281;34.132;-118.018;2024-01-07T02:42:43;100193.53;;;14.62;75.78
50368;BME280;36281;34.132;-118.018;2024-01-07T02:45:12;100196.22;;;14.62;75.93
50368;BME280;36281;34.132;-118.018;2024-01-07T02:47:41;100186.16;;;14.64;76.69
50368;BME280;36281;34.132;-118.018;2024-01-07T02:50:10;100184.97;;;14.60;76.65
50368;BME280;36281;34.132;-118.018;2024-01-07T02:52:39;100176.28;;;14.64;77.19
50368;BME280;36281;34.132;-118.018;2024-01-07T02:55:08;100181.25;;;14.61;76.85
50368;BME280;36281;34.132;-118.018;2024-01-07T02:57:38;100183.34;;;14.59;77.10
50368;BME280;36281;34.132;-118.018;2024-01-07T03:00:09;100177.66;;;14.55;77.87
50368;BME280;36281;34.132;-118.018;2024-01-07T03:02:39;100181.38;;;14.54;77.68
50368;BME280;36281;34.132;-118.018;2024-01-07T03:05:08;100175.59;;;14.57;78.11
50368;BME280;36281;34.132;-118.018;2024-01-07T03:07:38;100167.47;;;14.52;78.08
50368;BME280;36281;34.132;-118.018;2024-01-07T03:10:08;100169.91;;;14.54;78.07
50368;BME280;36281;34.132;-118.018;2024-01-07T03:12:38;100163.16;;;14.51;78.00
50368;BME280;36281;34.132;-118.018;2024-01-07T03:15:09;100166.06;;;14.50;78.32
50368;BME280;36281;34.132;-118.018;2024-01-07T03:17:38;100157.50;;;14.47;78.18
50368;BME280;36281;34.132;-118.018;2024-01-07T03:20:08;100155.66;;;14.48;78.27
50368;BME280;36281;34.132;-118.018;2024-01-07T03:22:38;100158.97;;;14.43;78.53
50368;BME280;36281;34.132;-118.018;2024-01-07T03:25:08;100160.72;;;14.38;79.19
50368;BME280;36281;34.132;-118.018;2024-01-07T03:27:37;100161.97;;;14.35;79.21
50368;BME280;36281;34.132;-118.018;2024-01-07T03:30:09;100158.72;;;14.33;79.71
50368;BME280;36281;34.132;-118.018;2024-01-07T03:32:38;100158.25;;;14.36;79.42
50368;BME280;36281;34.132;-118.018;2024-01-07T03:35:08;100147.16;;;14.39;79.59
50368;BME280;36281;34.132;-118.018;2024-01-07T03:37:40;100140.66;;;14.35;79.57
50368;BME280;36281;34.132;-118.018;2024-01-07T03:40:11;100133.34;;;14.19;80.16
50368;BME280;36281;34.132;-118.018;2024-01-07T03:42:40;100148.03;;;14.21;80.69
50368;BME280;36281;34.132;-118.018;2024-01-07T03:45:11;100138.06;;;14.17;80.86
50368;BME280;36281;34.132;-118.018;2024-01-07T03:47:40;100142.56;;;14.16;80.73
50368;BME280;36281;34.132;-118.018;2024-01-07T03:50:10;100141.63;;;14.11;81.27
50368;BME280;36281;34.132;-118.018;2024-01-07T03:52:39;100135.81;;;14.02;81.28
50368;BME280;36281;34.132;-118.018;2024-01-07T03:55:08;100148.94;;;14.04;81.77
50368;BME280;36281;34.132;-118.018;2024-01-07T03:57:37;100143.47;;;13.99;81.58
50368;BME280;36281;34.132;-118.018;2024-01-07T04:00:07;100136.72;;;13.96;81.76
50368;BME280;36281;34.132;-118.018;2024-01-07T04:02:39;100142.75;;;13.91;82.13
50368;BME280;36281;34.132;-118.018;2024-01-07T04:05:09;100135.09;;;13.83;82.20
50368;BME280;36281;34.132;-118.018;2024-01-07T04:07:38;100139.25;;;13.79;82.56
50368;BME280;36281;34.132;-118.018;2024-01-07T04:10:08;100147.53;;;13.71;82.70
50368;BME280;36281;34.132;-118.018;2024-01-07T04:12:37;100143.00;;;13.71;82.86
50368;BME280;36281;34.132;-118.018;2024-01-07T04:15:07;100138.22;;;13.62;83.25
50368;BME280;36281;34.132;-118.018;2024-01-07T04:17:36;100135.41;;;13.57;83.45
50368;BME280;36281;34.132;-118.018;2024-01-07T04:20:11;100138.41;;;13.49;83.75
50368;BME280;36281;34.132;-118.018;2024-01-07T04:22:41;100078.13;;;13.06;83.87
50368;BME280;36281;34.132;-118.018;2024-01-07T04:25:10;100127.69;;;13.37;84.24
50368;BME280;36281;34.132;-118.018;2024-01-07T04:27:39;100122.91;;;13.27;84.73
50368;BME280;36281;34.132;-118.018;2024-01-07T04:30:09;100116.41;;;13.23;84.63
50368;BME280;36281;34.132;-118.018;2024-01-07T04:32:38;100107.09;;;13.14;84.74
50368;BME280;36281;34.132;-118.018;2024-01-07T04:35:09;100110.63;;;13.08;85.35
50368;BME280;36281;34.132;-118.018;2024-01-07T04:37:45;100109.66;;;13.02;85.37
50368;BME280;36281;34.132;-118.018;2024-01-07T04:40:14;100107.00;;;13.02;85.56
50368;BME280;36281;34.132;-118.018;2024-01-07T04:42:44;100091.69;;;12.98;85.95
50368;BME280;36281;34.132;-118.018;2024-01-07T04:45:19;100089.72;;;12.93;85.90
50368;BME280;36281;34.132;-118.018;2024-01-07T04:47:48;100067.56;;;12.81;86.18
50368;BME280;36281;34.132;-118.018;2024-01-07T04:50:19;100083.66;;;12.86;86.25
50368;BME280;36281;34.132;-118.018;2024-01-07T04:52:48;100082.69;;;12.80;86.35
50368;BME280;36281;34.132;-118.018;2024-01-07T04:55:18;100080.94;;;12.74;86.42
50368;BME280;36281;34.132;-118.018;2024-01-07T04:57:47;100073.38;;;12.71;86.64
50368;BME280;36281;34.132;-118.018;2024-01-07T05:00:16;100081.22;;;12.66;86.67
50368;BME280;36281;34.132;-118.018;2024-01-07T05:02:46;100080.69;;;12.57;87.23
50368;BME280;36281;34.132;-118.018;2024-01-07T05:05:15;100076.16;;;12.58;87.50
50368;BME280;36281;34.132;-118.018;2024-01-07T05:07:46;100066.00;;;12.55;87.82
50368;BME280;36281;34.132;-118.018;2024-01-07T05:10:15;100055.00;;;12.51;87.44
50368;BME280;36281;34.132;-118.018;2024-01-07T05:12:44;100065.63;;;12.51;88.01
50368;BME280;36281;34.132;-118.018;2024-01-07T05:15:13;100063.41;;;12.48;88.17
50368;BME280;36281;34.132;-118.018;2024-01-07T05:17:42;100068.50;;;12.50;88.26
50368;BME280;36281;34.132;-118.018;2024-01-07T05:20:12;100074.25;;;12.47;88.73
50368;BME280;36281;34.132;-118.018;2024-01-07T05:22:45;100077.94;;;12.46;88.41
50368;BME280;36281;34.132;-118.018;2024-01-07T05:25:14;100073.03;;;12.42;88.88
50368;BME280;36281;34.132;-118.018;2024-01-07T05:27:44;100062.66;;;12.41;89.04
50368;BME280;36281;34.132;-118.018;2024-01-07T05:30:13;100062.41;;;12.42;89.13
50368;BME280;36281;34.132;-118.018;2024-01-07T05:32:42;100052.69;;;12.36;89.11
50368;BME280;36281;34.132;-118.018;2024-01-07T05:35:12;100056.22;;;12.30;89.36
50368;BME280;36281;34.132;-118.018;2024-01-07T05:37:41;100052.13;;;12.28;89.71
50368;BME280;36281;34.132;-118.018;2024-01-07T05:40:13;100051.56;;;12.26;89.11
50368;BME280;36281;34.132;-118.018;2024-01-07T05:42:42;100035.88;;;12.18;89.52
50368;BME280;36281;34.132;-118.018;2024-01-07T05:45:11;100032.25;;;12.12;89.78
50368;BME280;36281;34.132;-118.018;2024-01-07T05:47:40;100030.47;;;12.06;89.83
50368;BME280;36281;34.132;-118.018;2024-01-07T05:50:09;100026.53;;;12.15;90.20
50368;BME280;36281;34.132;-118.018;2024-01-07T05:52:39;100034.88;;;12.19;89.52
50368;BME280;36281;34.132;-118.018;2024-01-07T05:55:08;100023.94;;;12.08;89.89
50368;BME280;36281;34.132;-118.018;2024-01-07T05:57:39;100033.53;;;12.09;89.83
50368;BME280;36281;34.132;-118.018;2024-01-07T06:00:09;100026.59;;;12.08;89.80
50368;BME280;36281;34.132;-118.018;2024-01-07T06:02:39;100026.59;;;12.08;89.71
50368;BME280;36281;34.132;-118.018;2024-01-07T06:05:09;100023.94;;;12.08;90.12
50368;BME280;36281;34.132;-118.018;2024-01-07T06:07:38;100016.66;;;11.97;90.62
50368;BME280;36281;34.132;-118.018;2024-01-07T06:10:08;100029.03;;;12.10;90.02
50368;BME280;36281;34.132;-118.018;2024-01-07T06:12:39;100022.94;;;12.03;90.52
50368;BME280;36281;34.132;-118.018;2024-01-07T06:15:08;100012.13;;;12.04;90.98
50368;BME280;36281;34.132;-118.018;2024-01-07T06:17:38;100008.84;;;12.02;90.59
50368;BME280;36281;34.132;-118.018;2024-01-07T06:20:08;100001.94;;;12.01;90.70
50368;BME280;36281;34.132;-118.018;2024-01-07T06:22:37;99999.69;;;11.98;91.08
50368;BME280;36281;34.132;-118.018;2024-01-07T06:25:07;100010.72;;;12.02;91.37
50368;BME280;36281;34.132;-118.018;2024-01-07T06:27:38;99997.88;;;11.99;91.09
50368;BME280;36281;34.132;-118.018;2024-01-07T06:30:08;100001.53;;;11.98;91.72
50368;BME280;36281;34.132;-118.018;2024-01-07T06:32:37;99987.09;;;11.94;91.56
50368;BME280;36281;34.132;-118.018;2024-01-07T06:35:07;99991.81;;;11.92;91.90
50368;BME280;36281;34.132;-118.018;2024-01-07T06:37:36;99983.41;;;11.95;91.39
50368;BME280;36281;34.132;-118.018;2024-01-07T06:40:06;99976.28;;;11.95;91.37
50368;BME280;36281;34.132;-118.018;2024-01-07T06:42:35;99967.00;;;11.79;92.87
50368;BME280;36281;34.132;-118.018;2024-01-07T06:45:08;99962.69;;;11.85;92.29
50368;BME280;36281;34.132;-118.018;2024-01-07T06:47:37;99951.41;;;11.89;91.69
50368;BME280;36281;34.132;-118.018;2024-01-07T06:50:07;99961.97;;;11.96;91.94
50368;BME280;36281;34.132;-118.018;2024-01-07T06:52:36;99954.00;;;11.96;91.45
50368;BME280;36281;34.132;-118.018;2024-01-07T06:55:07;99961.16;;;11.96;91.59
50368;BME280;36281;34.132;-118.018;2024-01-07T06:57:37;99952.16;;;11.97;91.67
50368;BME280;36281;34.132;-118.018;2024-01-07T07:00:08;99937.84;;;11.98;91.64
50368;BME280;36281;34.132;-118.018;2024-01-07T07:02:38;99938.47;;;12.00;91.88
50368;BME280;36281;34.132;-118.018;2024-01-07T07:05:07;99930.91;;;11.97;91.96
50368;BME280;36281;34.132;-118.018;2024-01-07T07:07:37;99926.22;;;11.99;91.29
50368;BME280;36281;34.132;-118.018;2024-01-07T07:10:06;99921.50;;;12.01;91.87
50368;BME280;36281;34.132;-118.018;2024-01-07T07:12:36;99920.47;;;12.02;91.74
50368;BME280;36281;34.132;-118.018;2024-01-07T07:15:08;99920.69;;;12.00;92.09
50368;BME280;36281;34.132;-118.018;2024-01-07T07:17:38;99908.81;;;12.03;91.87
50368;BME280;36281;34.132;-118.018;2024-01-07T07:20:08;99903.88;;;12.06;92.19
50368;BME280;36281;34.132;-118.018;2024-01-07T07:22:38;99900.84;;;12.03;91.71
50368;BME280;36281;34.132;-118.018;2024-01-07T07:25:08;99905.13;;;12.04;91.84
50368;BME280;36281;34.132;-118.018;2024-01-07T07:27:37;99900.78;;;12.09;91.64
50368;BME280;36281;34.132;-118.018;2024-01-07T07:30:08;99872.16;;;11.93;91.90
50368;BME280;36281;34.132;-118.018;2024-01-07T07:32:39;99887.13;;;12.06;92.02
50368;BME280;36281;34.132;-118.018;2024-01-07T07:35:11;99866.19;;;11.98;92.24
50368;BME280;36281;34.132;-118.018;2024-01-07T07:37:40;99861.81;;;12.03;92.09
50368;BME280;36281;34.132;-118.018;2024-01-07T07:40:10;99857.94;;;12.06;92.34
50368;BME280;36281;34.132;-118.018;2024-01-07T07:42:41;99848.50;;;12.10;91.98
50368;BME280;36281;34.132;-118.018;2024-01-07T07:45:12;99846.28;;;12.07;92.21
50368;BME280;36281;34.132;-118.018;2024-01-07T07:47:41;99842.00;;;12.06;92.19
50368;BME280;36281;34.132;-118.018;2024-01-07T07:50:13;99845.25;;;12.08;92.56
50368;BME280;36281;34.132;-118.018;2024-01-07T07:52:42;99834.41;;;12.09;92.52
50368;BME280;36281;34.132;-118.018;2024-01-07T07:55:15;99834.63;;;12.08;92.49
50368;BME280;36281;34.132;-118.018;2024-01-07T07:57:44;99832.56;;;12.10;92.69
50368;BME280;36281;34.132;-118.018;2024-01-07T08:00:17;99836.47;;;12.07;92.72
50368;BME280;36281;34.132;-118.018;2024-01-07T08:02:46;99830.97;;;12.09;92.76
50368;BME280;36281;34.132;-118.018;2024-01-07T08:05:15;99835.81;;;12.12;92.94
50368;BME280;36281;34.132;-118.018;2024-01-07T08:07:45;99818.41;;;12.16;92.22
50368;BME280;36281;34.132;-118.018;2024-01-07T08:10:14;99804.63;;;12.07;93.00
50368;BME280;36281;34.132;-118.018;2024-01-07T08:12:43;99803.09;;;12.00;93.40
50368;BME280;36281;34.132;-118.018;2024-01-07T08:15:12;99797.69;;;12.06;93.42
50368;BME280;36281;34.132;-118.018;2024-01-07T08:17:43;99794.81;;;12.08;93.75
50368;BME280;36281;34.132;-118.018;2024-01-07T08:20:13;99783.25;;;12.02;93.88
50368;BME280;36281;34.132;-118.018;2024-01-07T08:22:42;99781.06;;;11.99;94.19
50368;BME280;36281;34.132;-118.018;2024-01-07T08:25:11;99745.00;;;11.92;94.16
50368;BME280;36281;34.132;-118.018;2024-01-07T08:27:41;99763.63;;;12.03;93.90
50368;BME280;36281;34.132;-118.018;2024-01-07T08:30:12;99745.28;;;12.02;94.05
50368;BME280;36281;34.132;-118.018;2024-01-07T08:32:43;99756.16;;;12.12;93.62
50368;BME280;36281;34.132;-118.018;2024-01-07T08:35:13;99762.28;;;12.12;93.74
50368;BME280;36281;34.132;-118.018;2024-01-07T08:37:45;99745.09;;;12.15;93.77
50368;BME280;36281;34.132;-118.018;2024-01-07T08:40:14;99735.53;;;12.14;93.63
50368;BME280;36281;34.132;-118.018;2024-01-07T08:42:44;99742.72;;;12.25;93.58
50368;BME280;36281;34.132;-118.018;2024-01-07T08:45:13;99742.28;;;12.28;93.82
50368;BME280;36281;34.132;-118.018;2024-01-07T08:47:44;99721.47;;;12.25;94.00
50368;BME280;36281;34.132;-118.018;2024-01-07T08:50:13;99701.22;;;12.12;94.01
50368;BME280;36281;34.132;-118.018;2024-01-07T08:52:42;99729.44;;;12.25;93.93
50368;BME280;36281;34.132;-118.018;2024-01-07T08:55:11;99727.22;;;12.22;93.98
50368;BME280;36281;34.132;-118.018;2024-01-07T08:57:41;99724.00;;;12.20;94.09
50368;BME280;36281;34.132;-118.018;2024-01-07T09:00:11;99734.31;;;12.28;94.51
50368;BME280;36281;34.132;-118.018;2024-01-07T09:02:40;99722.06;;;12.27;94.54
50368;BME280;36281;34.132;-118.018;2024-01-07T09:05:12;99718.81;;;12.25;94.54
50368;BME280;36281;34.132;-118.018;2024-01-07T09:07:42;99718.97;;;12.30;94.44
50368;BME280;36281;34.132;-118.018;2024-01-07T09:10:11;99717.09;;;12.31;94.83
50368;BME280;36281;34.132;-118.018;2024-01-07T09:12:42;99708.34;;;12.30;94.34
50368;BME280;36281;34.132;-118.018;2024-01-07T09:15:11;99704.63;;;12.31;93.96
50368;BME280;36281;34.132;-118.018;2024-01-07T09:17:40;99700.13;;;12.32;93.80
50368;BME280;36281;34.132;-118.018;2024-01-07T09:20:12;99689.88;;;12.35;93.88
50368;BME280;36281;34.132;-118.018;2024-01-07T09:22:41;99681.09;;;12.35;93.54
50368;BME280;36281;34.132;-118.018;2024-01-07T09:25:12;99649.66;;;12.20;93.34
50368;BME280;36281;34.132;-118.018;2024-01-07T09:27:41;99674.97;;;12.34;93.16
50368;BME280;36281;34.132;-118.018;2024-01-07T09:30:12;99679.50;;;12.34;92.92
50368;BME280;36281;34.132;-118.018;2024-01-07T09:32:43;99666.28;;;12.27;92.96
50368;BME280;36281;34.132;-118.018;2024-01-07T09:35:14;99678.69;;;12.33;92.52
50368;BME280;36281;34.132;-118.018;2024-01-07T09:37:43;99677.63;;;12.34;92.76
50368;BME280;36281;34.132;-118.018;2024-01-07T09:40:16;99691.97;;;12.33;92.60
50368;BME280;36281;34.132;-118.018;2024-01-07T09:42:47;99690.31;;;12.32;92.28
50368;BME280;36281;34.132;-118.018;2024-01-07T09:45:16;99678.06;;;12.31;92.23
50368;BME280;36281;34.132;-118.018;2024-01-07T09:47:47;99661.22;;;12.26;92.03
50368;BME280;36281;34.132;-118.018;2024-01-07T09:50:18;99658.94;;;12.29;92.09
50368;BME280;36281;34.132;-118.018;2024-01-07T09:52:47;99660.41;;;12.25;91.64
50368;BME280;36281;34.132;-118.018;2024-01-07T09:55:25;99652.63;;;12.12;92.15
50368;BME280;36281;34.132;-118.018;2024-01-07T09:57:56;99665.34;;;12.10;91.89
50368;BME280;36281;34.132;-118.018;2024-01-07T10:00:26;99659.78;;;12.11;91.49
50368;BME280;36281;34.132;-118.018;2024-01-07T10:02:57;99662.06;;;12.08;91.64
50368;BME280;36281;34.132;-118.018;2024-01-07T10:05:27;99662.44;;;12.11;91.19
50368;BME280;36281;34.132;-118.018;2024-01-07T10:07:56;99658.63;;;12.07;91.53
50368;BME280;36281;34.132;-118.018;2024-01-07T10:10:26;99653.97;;;12.03;91.54
50368;BME280;36281;34.132;-118.018;2024-01-07T10:12:55;99659.28;;;12.03;91.65
50368;BME280;36281;34.132;-118.018;2024-01-07T10:15:25;99669.91;;;12.03;91.73
50368;BME280;36281;34.132;-118.018;2024-01-07T10:17:55;99633.09;;;11.95;92.26
50368;BME280;36281;34.132;-118.018;2024-01-07T10:20:33;99627.31;;;11.98;93.16
50368;BME280;36281;34.132;-118.018;2024-01-07T10:23:03;99646.16;;;12.08;94.11
50368;BME280;36281;34.132;-118.018;2024-01-07T10:25:32;99631.13;;;12.02;93.96
50368;BME280;36281;34.132;-118.018;2024-01-07T10:28:02;99627.78;;;11.95;94.01
50368;BME280;36281;34.132;-118.018;2024-01-07T10:30:31;99634.25;;;11.99;94.79
50368;BME280;36281;34.132;-118.018;2024-01-07T10:33:01;99615.31;;;11.95;95.05
50368;BME280;36281;34.132;-118.018;2024-01-07T10:35:34;99630.44;;;11.95;95.74
50368;BME280;36281;34.132;-118.018;2024-01-07T10:38:04;99620.72;;;11.88;96.45
50368;BME280;36281;34.132;-118.018;2024-01-07T10:40:33;99575.44;;;11.53;96.49
50368;BME280;36281;34.132;-118.018;2024-01-07T10:43:03;99632.03;;;11.84;96.82
50368;BME280;36281;34.132;-118.018;2024-01-07T10:45:33;99611.81;;;11.83;97.15
50368;BME280;36281;34.132;-118.018;2024-01-07T10:48:05;99615.25;;;11.83;96.91
50368;BME280;36281;34.132;-118.018;2024-01-07T10:50:39;99619.84;;;11.76;96.69
50368;BME280;36281;34.132;-118.018;2024-01-07T10:53:38;99620.81;;;11.63;96.97
50368;BME280;36281;34.132;-118.018;2024-01-07T10:56:11;99627.25;;;11.56;97.40
50368;BME280;36281;34.132;-118.018;2024-01-07T10:58:42;99635.44;;;11.54;97.67
50368;BME280;36281;34.132;-118.018;2024-01-07T11:01:11;99622.63;;;11.51;96.91
50368;BME280;36281;34.132;-118.018;2024-01-07T11:03:43;99613.47;;;11.47;96.86
50368;BME280;36281;34.132;-118.018;2024-01-07T11:06:24;99620.06;;;11.45;97.23
50368;BME280;36281;34.132;-118.018;2024-01-07T11:09:01;99615.56;;;11.45;97.00
50368;BME280;36281;34.132;-118.018;2024-01-07T11:11:36;99624.75;;;11.43;96.95
50368;BME280;36281;34.132;-118.018;2024-01-07T11:16:58;99629.88;;;11.26;96.41
50368;BME280;36281;34.132;-118.018;2024-01-07T11:19:27;99635.97;;;11.08;96.98
50368;BME280;36281;34.132;-118.018;2024-01-07T11:22:25;99636.63;;;11.03;97.22
50368;BME280;36281;34.132;-118.018;2024-01-07T11:24:58;99647.13;;;10.92;97.44
50368;BME280;36281;34.132;-118.018;2024-01-07T11:27:31;99640.66;;;10.87;97.51
50368;BME280;36281;34.132;-118.018;2024-01-07T11:30:03;99645.81;;;10.82;97.65
50368;BME280;36281;34.132;-118.018;2024-01-07T11:32:35;99628.31;;;10.31;91.56
50368;BME280;36281;34.132;-118.018;2024-01-07T11:35:05;99644.75;;;10.40;80.00
50368;BME280;36281;34.132;-118.018;2024-01-07T11:37:36;99647.88;;;10.30;68.62
50368;BME280;36281;34.132;-118.018;2024-01-07T11:40:08;99643.63;;;10.29;62.25
50368;BME280;36281;34.132;-118.018;2024-01-07T11:42:37;99637.63;;;10.41;63.47
50368;BME280;36281;34.132;-118.018;2024-01-07T11:45:07;99646.44;;;10.34;61.96
50368;BME280;36281;34.132;-118.018;2024-01-07T11:47:39;99645.56;;;10.41;62.41
50368;BME280;36281;34.132;-118.018;2024-01-07T11:50:09;99660.84;;;10.39;60.96
50368;BME280;36281;34.132;-118.018;2024-01-07T11:52:40;99661.28;;;10.35;60.40
50368;BME280;36281;34.132;-118.018;2024-01-07T11:55:11;99675.72;;;10.40;63.19
50368;BME280;36281;34.132;-118.018;2024-01-07T11:57:42;99672.94;;;10.21;63.41
50368;BME280;36281;34.132;-118.018;2024-01-07T12:00:12;99675.66;;;10.15;60.02
50368;BME280;36281;34.132;-118.018;2024-01-07T12:02:42;99684.75;;;10.19;58.34
50368;BME280;36281;34.132;-118.018;2024-01-07T12:05:11;99663.41;;;10.14;58.83
50368;BME280;36281;34.132;-118.018;2024-01-07T12:07:43;99674.75;;;10.27;58.71
50368;BME280;36281;34.132;-118.018;2024-01-07T12:10:12;99676.63;;;10.20;57.41
50368;BME280;36281;34.132;-118.018;2024-01-07T12:12:42;99677.91;;;10.11;53.04
50368;BME280;36281;34.132;-118.018;2024-01-07T12:15:12;99676.66;;;10.14;52.87
50368;BME280;36281;34.132;-118.018;2024-01-07T12:17:42;99681.13;;;10.13;51.21
50368;BME280;36281;34.132;-118.018;2024-01-07T12:20:11;99681.53;;;10.17;52.12
50368;BME280;36281;34.132;-118.018;2024-01-07T12:22:43;99677.03;;;10.17;51.98
50368;BME280;36281;34.132;-118.018;2024-01-07T12:25:12;99666.13;;;10.07;51.90
50368;BME280;36281;34.132;-118.018;2024-01-07T12:27:42;99618.28;;;9.77;52.20
50368;BME280;36281;34.132;-118.018;2024-01-07T12:30:15;99697.00;;;10.13;49.84
50368;BME280;36281;34.132;-118.018;2024-01-07T12:32:46;99700.84;;;10.24;50.43
50368;BME280;36281;34.132;-118.018;2024-01-07T12:35:15;99685.22;;;10.16;49.58
50368;BME280;36281;34.132;-118.018;2024-01-07T12:37:48;99699.41;;;10.21;50.40
50368;BME280;36281;34.132;-118.018;2024-01-07T12:40:17;99695.75;;;10.22;51.24
50368;BME280;36281;34.132;-118.018;2024-01-07T12:42:48;99692.72;;;10.25;51.73